sensor_id;sensor_type;location;lat;lon;timestamp;temperature;humidity
70593;DHT22;58294;42.988;20.338;2023-10-19T00:00:34;231.10;2252.80
70593;DHT22;58294;42.988;20.338;2023-10-19T00:03:02;231.00;2252.80
70593;DHT22;58294;42.988;20.338;2023-10-19T00:05:29;231.10;2252.80
70593;DHT22;58294;42.988;20.338;2023-10-19T00:07:56;231.10;2252.80
70593;DHT22;58294;42.988;20.338;2023-10-19T00:10:23;231.10;2252.80
70593;DHT22;58294;42.988;20.338;2023-10-19T00:12:51;231.10;2252.80
70593;DHT22;58294;42.988;20.338;2023-10-19T00:15:31;231.10;2252.80
70593;DHT22;58294;42.988;20.338;2023-10-19T00:17:58;231.20;2252.80
70593;DHT22;58294;42.988;20.338;2023-10-19T00:20:44;231.20;2252.80
70593;DHT22;58294;42.988;20.338;2023-10-19T00:23:10;231.20;2252.80
70593;DHT22;58294;42.988;20.338;2023-10-19T00:25:39;231.10;2252.80
70593;DHT22;58294;42.988;20.338;2023-10-19T00:28:08;231.10;2252.80
70593;DHT22;58294;42.988;20.338;2023-10-19T00:30:34;231.20;2252.80
70593;DHT22;58294;42.988;20.338;2023-10-19T00:33:03;231.20;2252.80
70593;DHT22;58294;42.988;20.338;2023-10-19T00:35:30;231.20;2252.80
70593;DHT22;58294;42.988;20.338;2023-10-19T00:38:08;231.20;2252.80
70593;DHT22;58294;42.988;20.338;2023-10-19T00:40:56;231.20;2252.80
70593;DHT22;58294;42.988;20.338;2023-10-19T00:43:30;231.20;2252.80
70593;DHT22;58294;42.988;20.338;2023-10-19T00:46:09;231.20;2252.80
70593;DHT22;58294;42.988;20.338;2023-10-19T00:51:16;231.20;2252.80
70593;DHT22;58294;42.988;20.338;2023-10-19T00:54:08;231.20;2252.80
70593;DHT22;58294;42.988;20.338;2023-10-19T00:56:36;231.20;2252.80
70593;DHT22;58294;42.988;20.338;2023-10-19T00:59:03;231.20;2252.80
70593;DHT22;58294;42.988;20.338;2023-10-19T01:01:41;231.20;2252.80
70593;DHT22;58294;42.988;20.338;2023-10-19T01:04:13;231.30;2252.80
70593;DHT22;58294;42.988;20.338;2023-10-19T01:06:41;231.30;2252.80
70593;DHT22;58294;42.988;20.338;2023-10-19T01:09:12;231.30;2252.80
70593;DHT22;58294;42.988;20.338;2023-10-19T01:11:44;231.30;2252.80
70593;DHT22;58294;42.988;20.338;2023-10-19T01:14:21;256.00;2252.80
70593;DHT22;58294;42.988;20.338;2023-10-19T01:16:48;256.00;2252.80
70593;DHT22;58294;42.988;20.338;2023-10-19T01:19:15;256.00;2252.80
70593;DHT22;58294;42.988;20.338;2023-10-19T01:21:44;256.00;2252.80
70593;DHT22;58294;42.988;20.338;2023-10-19T01:24:21;256.00;2252.80
70593;DHT22;58294;42.988;20.338;2023-10-19T01:26:55;256.00;2252.80
70593;DHT22;58294;42.988;20.338;2023-10-19T01:29:22;256.00;2252.80
70593;DHT22;58294;42.988;20.338;2023-10-19T01:31:52;256.00;2252.80
70593;DHT22;58294;42.988;20.338;2023-10-19T01:34:22;256.00;2252.80
70593;DHT22;58294;42.988;20.338;2023-10-19T01:36:47;256.00;2252.80
70593;DHT22;58294;42.988;20.338;2023-10-19T01:39:17;256.00;2252.80
70593;DHT22;58294;42.988;20.338;2023-10-19T01:41:45;256.00;2252.80
70593;DHT22;58294;42.988;20.338;2023-10-19T01:44:11;256.00;2252.80
70593;DHT22;58294;42.988;20.338;2023-10-19T01:46:41;256.00;2252.80
70593;DHT22;58294;42.988;20.338;2023-10-19T01:49:09;256.00;2252.80
70593;DHT22;58294;42.988;20.338;2023-10-19T01:51:36;256.10;2252.80
70593;DHT22;58294;42.988;20.338;2023-10-19T01:54:05;256.10;2252.80
70593;DHT22;58294;42.988;20.338;2023-10-19T01:56:32;256.20;2252.80
70593;DHT22;58294;42.988;20.338;2023-10-19T01:59:01;256.20;2252.80
70593;DHT22;58294;42.988;20.338;2023-10-19T02:01:29;256.20;2252.80
70593;DHT22;58294;42.988;20.338;2023-10-19T02:03:56;256.20;2252.80
70593;DHT22;58294;42.988;20.338;2023-10-19T02:06:26;256.20;2252.80
70593;DHT22;58294;42.988;20.338;2023-10-19T02:09:12;256.20;2252.80
70593;DHT22;58294;42.988;20.338;2023-10-19T02:11:41;256.20;2252.80
70593;DHT22;58294;42.988;20.338;2023-10-19T02:14:08;256.20;2252.80
70593;DHT22;58294;42.988;20.338;2023-10-19T02:16:40;256.20;2252.80
70593;DHT22;58294;42.988;20.338;2023-10-19T02:19:06;256.20;2252.80
70593;DHT22;58294;42.988;20.338;2023-10-19T02:21:33;256.20;2252.80
70593;DHT22;58294;42.988;20.338;2023-10-19T02:24:05;256.30;2252.80
70593;DHT22;58294;42.988;20.338;2023-10-19T02:26:32;256.30;2252.80
70593;DHT22;58294;42.988;20.338;2023-10-19T02:28:59;256.30;2252.80
70593;DHT22;58294;42.988;20.338;2023-10-19T02:31:25;256.30;2252.80
70593;DHT22;58294;42.988;20.338;2023-10-19T02:33:52;256.30;2252.80
70593;DHT22;58294;42.988;20.338;2023-10-19T02:36:27;256.30;2252.80
70593;DHT22;58294;42.988;20.338;2023-10-19T02:39:07;256.20;2252.80
70593;DHT22;58294;42.988;20.338;2023-10-19T02:41:44;256.20;2252.80
70593;DHT22;58294;42.988;20.338;2023-10-19T02:44:17;256.20;2252.80
70593;DHT22;58294;42.988;20.338;2023-10-19T02:46:44;256.20;2252.80
70593;DHT22;58294;42.988;20.338;2023-10-19T02:49:12;256.20;2252.80
70593;DHT22;58294;42.988;20.338;2023-10-19T02:51:39;256.20;2252.80
70593;DHT22;58294;42.988;20.338;2023-10-19T02:54:07;256.30;2252.80
70593;DHT22;58294;42.988;20.338;2023-10-19T02:56:35;256.30;2252.80
70593;DHT22;58294;42.988;20.338;2023-10-19T02:59:02;256.30;2252.80
70593;DHT22;58294;42.988;20.338;2023-10-19T03:01:31;256.30;2252.80
70593;DHT22;58294;42.988;20.338;2023-10-19T03:04:01;256.30;2252.80
70593;DHT22;58294;42.988;20.338;2023-10-19T03:06:28;256.30;2252.80
70593;DHT22;58294;42.988;20.338;2023-10-19T03:09:05;256.30;2252.80
70593;DHT22;58294;42.988;20.338;2023-10-19T03:11:39;256.30;2252.80
70593;DHT22;58294;42.988;20.338;2023-10-19T03:14:10;256.30;2252.80
70593;DHT22;58294;42.988;20.338;2023-10-19T03:16:38;256.40;2252.80
70593;DHT22;58294;42.988;20.338;2023-10-19T03:19:07;256.40;2252.80
70593;DHT22;58294;42.988;20.338;2023-10-19T03:21:35;256.40;2252.80
70593;DHT22;58294;42.988;20.338;2023-10-19T03:24:11;256.40;2252.80
70593;DHT22;58294;42.988;20.338;2023-10-19T03:26:57;256.40;2252.80
70593;DHT22;58294;42.988;20.338;2023-10-19T03:29:25;256.40;2252.80
70593;DHT22;58294;42.988;20.338;2023-10-19T03:31:58;256.30;2201.60
70593;DHT22;58294;42.988;20.338;2023-10-19T03:34:27;256.20;2252.80
70593;DHT22;58294;42.988;20.338;2023-10-19T03:36:52;256.20;2252.80
70593;DHT22;58294;42.988;20.338;2023-10-19T03:39:20;256.20;2252.80
70593;DHT22;58294;42.988;20.338;2023-10-19T03:41:46;256.20;2252.80
70593;DHT22;58294;42.988;20.338;2023-10-19T03:44:16;256.30;2252.80
70593;DHT22;58294;42.988;20.338;2023-10-19T03:46:50;256.30;2252.80
70593;DHT22;58294;42.988;20.338;2023-10-19T03:49:22;256.30;2252.80
70593;DHT22;58294;42.988;20.338;2023-10-19T03:51:48;256.30;2252.80
70593;DHT22;58294;42.988;20.338;2023-10-19T03:54:27;256.40;2252.80
70593;DHT22;58294;42.988;20.338;2023-10-19T03:56:54;256.40;2252.80
70593;DHT22;58294;42.988;20.338;2023-10-19T03:59:22;256.50;2252.80
70593;DHT22;58294;42.988;20.338;2023-10-19T04:01:55;256.50;2252.80
70593;DHT22;58294;42.988;20.338;2023-10-19T04:04:21;256.50;2252.80
70593;DHT22;58294;42.988;20.338;2023-10-19T04:06:47;256.50;2252.80
70593;DHT22;58294;42.988;20.338;2023-10-19T04:09:14;256.40;2252.80
70593;DHT22;58294;42.988;20.338;2023-10-19T04:11:43;256.40;2252.80
70593;DHT22;58294;42.988;20.338;2023-10-19T04:14:15;256.40;2252.80
70593;DHT22;58294;42.988;20.338;2023-10-19T04:16:42;256.30;2252.80
70593;DHT22;58294;42.988;20.338;2023-10-19T04:19:14;256.30;2252.80
70593;DHT22;58294;42.988;20.338;2023-10-19T04:21:40;256.30;2252.80
70593;DHT22;58294;42.988;20.338;2023-10-19T04:24:10;256.30;2252.80
70593;DHT22;58294;42.988;20.338;2023-10-19T04:26:37;256.40;2252.80
70593;DHT22;58294;42.988;20.338;2023-10-19T04:29:06;256.40;2252.80
70593;DHT22;58294;42.988;20.338;2023-10-19T04:31:42;256.30;2252.80
70593;DHT22;58294;42.988;20.338;2023-10-19T04:34:20;256.30;2252.80
70593;DHT22;58294;42.988;20.338;2023-10-19T04:36:50;256.30;2252.80
70593;DHT22;58294;42.988;20.338;2023-10-19T04:39:16;256.30;2252.80
70593;DHT22;58294;42.988;20.338;2023-10-19T04:41:45;256.30;2252.80
70593;DHT22;58294;42.988;20.338;2023-10-19T04:44:14;256.30;2252.80
70593;DHT22;58294;42.988;20.338;2023-10-19T04:46:41;256.30;2252.80
70593;DHT22;58294;42.988;20.338;2023-10-19T04:49:07;256.30;2252.80
70593;DHT22;58294;42.988;20.338;2023-10-19T04:51:34;256.30;2252.80
70593;DHT22;58294;42.988;20.338;2023-10-19T04:54:04;256.30;2252.80
70593;DHT22;58294;42.988;20.338;2023-10-19T04:56:31;256.30;2252.80
70593;DHT22;58294;42.988;20.338;2023-10-19T04:58:57;256.30;2252.80
70593;DHT22;58294;42.988;20.338;2023-10-19T05:01:23;256.30;2252.80
70593;DHT22;58294;42.988;20.338;2023-10-19T05:03:49;256.30;2252.80
70593;DHT22;58294;42.988;20.338;2023-10-19T05:06:15;256.40;2252.80
70593;DHT22;58294;42.988;20.338;2023-10-19T05:08:41;256.30;2252.80
70593;DHT22;58294;42.988;20.338;2023-10-19T05:11:06;256.20;2252.80
70593;DHT22;58294;42.988;20.338;2023-10-19T05:13:32;256.20;2252.80
70593;DHT22;58294;42.988;20.338;2023-10-19T05:15:58;256.20;2252.80
70593;DHT22;58294;42.988;20.338;2023-10-19T05:18:25;256.20;2252.80
70593;DHT22;58294;42.988;20.338;2023-10-19T05:20:52;256.20;2252.80
70593;DHT22;58294;42.988;20.338;2023-10-19T05:23:23;256.20;2252.80
70593;DHT22;58294;42.988;20.338;2023-10-19T05:26:08;256.30;2252.80
70593;DHT22;58294;42.988;20.338;2023-10-19T05:28:33;256.30;2252.80
70593;DHT22;58294;42.988;20.338;2023-10-19T05:30:59;256.30;2252.80
70593;DHT22;58294;42.988;20.338;2023-10-19T05:33:27;256.40;2252.80
70593;DHT22;58294;42.988;20.338;2023-10-19T05:35:52;256.40;2252.80
70593;DHT22;58294;42.988;20.338;2023-10-19T05:38:18;256.50;2252.80
70593;DHT22;58294;42.988;20.338;2023-10-19T05:40:53;256.60;2252.80
70593;DHT22;58294;42.988;20.338;2023-10-19T05:43:20;256.60;2252.80
70593;DHT22;58294;42.988;20.338;2023-10-19T05:45:46;256.60;2252.80
70593;DHT22;58294;42.988;20.338;2023-10-19T05:48:15;256.50;2252.80
70593;DHT22;58294;42.988;20.338;2023-10-19T05:50:41;256.50;2252.80
70593;DHT22;58294;42.988;20.338;2023-10-19T05:53:08;256.40;2252.80
70593;DHT22;58294;42.988;20.338;2023-10-19T05:55:34;256.40;2252.80
70593;DHT22;58294;42.988;20.338;2023-10-19T05:58:02;256.30;2252.80
70593;DHT22;58294;42.988;20.338;2023-10-19T06:00:30;256.40;2252.80
70593;DHT22;58294;42.988;20.338;2023-10-19T06:02:56;256.50;2252.80
70593;DHT22;58294;42.988;20.338;2023-10-19T06:05:23;256.60;2252.80
70593;DHT22;58294;42.988;20.338;2023-10-19T06:07:50;256.80;2252.80
70593;DHT22;58294;42.988;20.338;2023-10-19T06:10:18;281.60;2278.40
70593;DHT22;58294;42.988;20.338;2023-10-19T06:12:47;281.70;2278.40
70593;DHT22;58294;42.988;20.338;2023-10-19T06:15:14;281.70;2278.40
70593;DHT22;58294;42.988;20.338;2023-10-19T06:17:41;281.80;2278.40
70593;DHT22;58294;42.988;20.338;2023-10-19T06:20:11;281.80;2278.40
70593;DHT22;58294;42.988;20.338;2023-10-19T06:22:57;281.80;2278.40
70593;DHT22;58294;42.988;20.338;2023-10-19T06:25:29;281.80;2278.40
70593;DHT22;58294;42.988;20.338;2023-10-19T06:27:55;281.70;2278.40
70593;DHT22;58294;42.988;20.338;2023-10-19T06:30:25;281.70;2278.40
70593;DHT22;58294;42.988;20.338;2023-10-19T06:32:54;281.60;2278.40
70593;DHT22;58294;42.988;20.338;2023-10-19T06:35:21;281.60;2278.40
70593;DHT22;58294;42.988;20.338;2023-10-19T06:37:48;281.60;2278.40
70593;DHT22;58294;42.988;20.338;2023-10-19T06:40:15;281.70;2278.40
70593;DHT22;58294;42.988;20.338;2023-10-19T06:42:46;281.80;2278.40
70593;DHT22;58294;42.988;20.338;2023-10-19T06:45:13;281.80;2278.40
70593;DHT22;58294;42.988;20.338;2023-10-19T06:47:42;281.90;2278.40
70593;DHT22;58294;42.988;20.338;2023-10-19T06:50:14;282.00;2278.40
70593;DHT22;58294;42.988;20.338;2023-10-19T06:52:42;282.10;2278.40
70593;DHT22;58294;42.988;20.338;2023-10-19T06:55:09;282.10;2278.40
70593;DHT22;58294;42.988;20.338;2023-10-19T06:57:50;282.20;2278.40
70593;DHT22;58294;42.988;20.338;2023-10-19T07:00:18;282.30;2278.40
70593;DHT22;58294;42.988;20.338;2023-10-19T07:02:50;307.20;2304.00
70593;DHT22;58294;42.988;20.338;2023-10-19T07:05:17;307.40;2304.00
70593;DHT22;58294;42.988;20.338;2023-10-19T07:07:45;307.70;2304.00
70593;DHT22;58294;42.988;20.338;2023-10-19T07:10:12;307.80;2304.00
70593;DHT22;58294;42.988;20.338;2023-10-19T07:12:41;307.90;2304.00
70593;DHT22;58294;42.988;20.338;2023-10-19T07:15:08;308.10;2304.00
70593;DHT22;58294;42.988;20.338;2023-10-19T07:17:41;332.90;2329.60
70593;DHT22;58294;42.988;20.338;2023-10-19T07:20:08;332.90;2278.40
70593;DHT22;58294;42.988;20.338;2023-10-19T07:22:37;332.90;2304.00
70593;DHT22;58294;42.988;20.338;2023-10-19T07:25:05;333.00;2329.60
70593;DHT22;58294;42.988;20.338;2023-10-19T07:27:32;333.10;2329.60
70593;DHT22;58294;42.988;20.338;2023-10-19T07:30:00;333.10;2304.00
70593;DHT22;58294;42.988;20.338;2023-10-19T07:32:26;333.20;2304.00
70593;DHT22;58294;42.988;20.338;2023-10-19T07:34:53;333.30;2304.00
70593;DHT22;58294;42.988;20.338;2023-10-19T07:37:21;333.30;2329.60
70593;DHT22;58294;42.988;20.338;2023-10-19T07:39:47;333.50;2329.60
70593;DHT22;58294;42.988;20.338;2023-10-19T07:42:14;333.60;2329.60
70593;DHT22;58294;42.988;20.338;2023-10-19T07:44:40;358.40;2329.60
70593;DHT22;58294;42.988;20.338;2023-10-19T07:47:06;358.60;2329.60
70593;DHT22;58294;42.988;20.338;2023-10-19T07:49:35;358.80;2329.60
70593;DHT22;58294;42.988;20.338;2023-10-19T07:52:05;358.90;2278.40
70593;DHT22;58294;42.988;20.338;2023-10-19T07:54:35;359.00;2252.80
70593;DHT22;58294;42.988;20.338;2023-10-19T07:57:04;359.20;2201.60
70593;DHT22;58294;42.988;20.338;2023-10-19T07:59:33;359.30;2201.60
70593;DHT22;58294;42.988;20.338;2023-10-19T08:02:00;384.00;2150.40
70593;DHT22;58294;42.988;20.338;2023-10-19T08:04:28;384.00;2124.80
70593;DHT22;58294;42.988;20.338;2023-10-19T08:06:55;384.10;2073.60
70593;DHT22;58294;42.988;20.338;2023-10-19T08:09:24;384.20;2124.80
70593;DHT22;58294;42.988;20.338;2023-10-19T08:11:52;384.40;2099.20
70593;DHT22;58294;42.988;20.338;2023-10-19T08:14:27;384.50;2099.20
70593;DHT22;58294;42.988;20.338;2023-10-19T08:16:53;384.60;2099.20
70593;DHT22;58294;42.988;20.338;2023-10-19T08:19:19;384.70;2073.60
70593;DHT22;58294;42.988;20.338;2023-10-19T08:21:46;384.90;2124.80
70593;DHT22;58294;42.988;20.338;2023-10-19T08:24:12;409.60;2022.40
70593;DHT22;58294;42.988;20.338;2023-10-19T08:26:46;409.60;1971.20
70593;DHT22;58294;42.988;20.338;2023-10-19T08:29:13;409.60;1996.80
70593;DHT22;58294;42.988;20.338;2023-10-19T08:31:41;409.70;1996.80
70593;DHT22;58294;42.988;20.338;2023-10-19T08:34:11;409.70;2022.40
70593;DHT22;58294;42.988;20.338;2023-10-19T08:36:40;409.80;2048.00
70593;DHT22;58294;42.988;20.338;2023-10-19T08:39:07;409.90;2099.20
70593;DHT22;58294;42.988;20.338;2023-10-19T08:41:36;410.10;2099.20
70593;DHT22;58294;42.988;20.338;2023-10-19T08:44:07;410.10;2073.60
70593;DHT22;58294;42.988;20.338;2023-10-19T08:46:42;410.30;2124.80
70593;DHT22;58294;42.988;20.338;2023-10-19T08:49:13;410.40;2099.20
70593;DHT22;58294;42.988;20.338;2023-10-19T08:51:43;435.20;2073.60
70593;DHT22;58294;42.988;20.338;2023-10-19T08:54:11;435.40;2048.00
70593;DHT22;58294;42.988;20.338;2023-10-19T08:56:38;435.60;2124.80
70593;DHT22;58294;42.988;20.338;2023-10-19T08:59:04;435.80;2048.00
70593;DHT22;58294;42.988;20.338;2023-10-19T09:01:31;435.90;1996.80
70593;DHT22;58294;42.988;20.338;2023-10-19T09:04:00;436.10;1971.20
70593;DHT22;58294;42.988;20.338;2023-10-19T09:06:27;460.80;1945.60
70593;DHT22;58294;42.988;20.338;2023-10-19T09:08:56;460.90;1920.00
70593;DHT22;58294;42.988;20.338;2023-10-19T09:11:24;460.90;1894.40
70593;DHT22;58294;42.988;20.338;2023-10-19T09:13:53;461.00;1920.00
70593;DHT22;58294;42.988;20.338;2023-10-19T09:16:20;461.20;1920.00
70593;DHT22;58294;42.988;20.338;2023-10-19T09:18:47;461.20;1920.00
70593;DHT22;58294;42.988;20.338;2023-10-19T09:21:17;461.30;1868.80
70593;DHT22;58294;42.988;20.338;2023-10-19T09:23:55;461.30;1894.40
70593;DHT22;58294;42.988;20.338;2023-10-19T09:26:22;461.40;1868.80
70593;DHT22;58294;42.988;20.338;2023-10-19T09:28:50;461.40;1817.60
70593;DHT22;58294;42.988;20.338;2023-10-19T09:31:18;461.50;1843.20
70593;DHT22;58294;42.988;20.338;2023-10-19T09:33:45;461.60;1843.20
70593;DHT22;58294;42.988;20.338;2023-10-19T09:36:13;461.70;1894.40
70593;DHT22;58294;42.988;20.338;2023-10-19T09:41:17;486.50;1843.20
70593;DHT22;58294;42.988;20.338;2023-10-19T09:43:45;486.60;1817.60
70593;DHT22;58294;42.988;20.338;2023-10-19T09:46:12;486.60;1792.00
70593;DHT22;58294;42.988;20.338;2023-10-19T09:48:45;486.60;1740.80
70593;DHT22;58294;42.988;20.338;2023-10-19T09:51:13;486.60;1740.80
70593;DHT22;58294;42.988;20.338;2023-10-19T09:55:07;486.60;1740.80
70593;DHT22;58294;42.988;20.338;2023-10-19T09:57:12;486.50;1766.40
70593;DHT22;58294;42.988;20.338;2023-10-19T09:59:44;486.40;1792.00
70593;DHT22;58294;42.988;20.338;2023-10-19T10:02:12;461.70;1817.60
70593;DHT22;58294;42.988;20.338;2023-10-19T10:04:39;461.70;1843.20
70593;DHT22;58294;42.988;20.338;2023-10-19T10:07:07;461.70;1843.20
70593;DHT22;58294;42.988;20.338;2023-10-19T10:09:38;461.70;1868.80
70593;DHT22;58294;42.988;20.338;2023-10-19T10:12:22;461.70;1868.80
70593;DHT22;58294;42.988;20.338;2023-10-19T10:15:00;486.40;1868.80
70593;DHT22;58294;42.988;20.338;2023-10-19T10:17:39;486.40;1894.40
70593;DHT22;58294;42.988;20.338;2023-10-19T10:22:43;486.50;1868.80
70593;DHT22;58294;42.988;20.338;2023-10-19T10:25:29;486.50;1894.40
70593;DHT22;58294;42.988;20.338;2023-10-19T10:27:55;486.70;1945.60
70593;DHT22;58294;42.988;20.338;2023-10-19T10:30:21;486.90;1996.80
70593;DHT22;58294;42.988;20.338;2023-10-19T10:32:50;487.10;1894.40
70593;DHT22;58294;42.988;20.338;2023-10-19T10:35:54;487.10;1868.80
70593;DHT22;58294;42.988;20.338;2023-10-19T10:38:20;487.30;1894.40
70593;DHT22;58294;42.988;20.338;2023-10-19T10:40:47;487.30;1817.60
70593;DHT22;58294;42.988;20.338;2023-10-19T10:43:13;512.00;1843.20
70593;DHT22;58294;42.988;20.338;2023-10-19T10:45:39;512.10;1792.00
70593;DHT22;58294;42.988;20.338;2023-10-19T10:48:15;512.10;1766.40
70593;DHT22;58294;42.988;20.338;2023-10-19T10:50:40;512.10;1792.00
70593;DHT22;58294;42.988;20.338;2023-10-19T10:53:12;512.20;1817.60
70593;DHT22;58294;42.988;20.338;2023-10-19T10:55:38;512.20;1817.60
70593;DHT22;58294;42.988;20.338;2023-10-19T10:58:05;512.30;1843.20
70593;DHT22;58294;42.988;20.338;2023-10-19T11:00:30;512.70;2099.20
70593;DHT22;58294;42.988;20.338;2023-10-19T11:03:06;538.00;2022.40
70593;DHT22;58294;42.988;20.338;2023-10-19T11:05:36;538.50;2099.20
70593;DHT22;58294;42.988;20.338;2023-10-19T11:08:09;563.70;1868.80
70593;DHT22;58294;42.988;20.338;2023-10-19T11:10:39;563.90;1766.40
70593;DHT22;58294;42.988;20.338;2023-10-19T11:13:09;589.10;1664.00
70593;DHT22;58294;42.988;20.338;2023-10-19T11:15:37;589.00;1536.00
70593;DHT22;58294;42.988;20.338;2023-10-19T11:18:03;589.30;1433.60
70593;DHT22;58294;42.988;20.338;2023-10-19T11:20:29;589.30;1408.00
70593;DHT22;58294;42.988;20.338;2023-10-19T11:22:56;589.10;1408.00
70593;DHT22;58294;42.988;20.338;2023-10-19T11:25:25;589.00;1484.80
70593;DHT22;58294;42.988;20.338;2023-10-19T11:27:55;588.90;1715.20
70593;DHT22;58294;42.988;20.338;2023-10-19T11:30:27;588.80;1484.80
70593;DHT22;58294;42.988;20.338;2023-10-19T11:32:56;564.10;1484.80
70593;DHT22;58294;42.988;20.338;2023-10-19T11:35:27;564.10;1484.80
70593;DHT22;58294;42.988;20.338;2023-10-19T11:37:57;564.10;1459.20
70593;DHT22;58294;42.988;20.338;2023-10-19T11:40:24;564.10;1484.80
70593;DHT22;58294;42.988;20.338;2023-10-19T11:42:51;564.00;1459.20
70593;DHT22;58294;42.988;20.338;2023-10-19T11:45:18;563.80;1433.60
70593;DHT22;58294;42.988;20.338;2023-10-19T11:47:44;563.70;1459.20
70593;DHT22;58294;42.988;20.338;2023-10-19T11:50:13;563.60;1459.20
70593;DHT22;58294;42.988;20.338;2023-10-19T11:52:43;563.50;1459.20
70593;DHT22;58294;42.988;20.338;2023-10-19T11:55:12;563.30;1484.80
70593;DHT22;58294;42.988;20.338;2023-10-19T11:57:39;563.20;1484.80
70593;DHT22;58294;42.988;20.338;2023-10-19T12:00:06;563.20;1484.80
70593;DHT22;58294;42.988;20.338;2023-10-19T12:02:39;538.50;1459.20
70593;DHT22;58294;42.988;20.338;2023-10-19T12:05:07;538.50;1459.20
70593;DHT22;58294;42.988;20.338;2023-10-19T12:07:37;538.40;1484.80
70593;DHT22;58294;42.988;20.338;2023-10-19T12:10:09;538.30;1484.80
70593;DHT22;58294;42.988;20.338;2023-10-19T12:12:36;538.20;1459.20
70593;DHT22;58294;42.988;20.338;2023-10-19T12:15:03;538.00;1459.20
70593;DHT22;58294;42.988;20.338;2023-10-19T12:17:31;537.90;1459.20
70593;DHT22;58294;42.988;20.338;2023-10-19T12:19:57;537.90;1459.20
70593;DHT22;58294;42.988;20.338;2023-10-19T12:22:23;537.80;1484.80
70593;DHT22;58294;42.988;20.338;2023-10-19T12:24:50;537.70;1484.80
70593;DHT22;58294;42.988;20.338;2023-10-19T12:27:17;537.60;1510.40
70593;DHT22;58294;42.988;20.338;2023-10-19T12:29:43;537.70;1484.80
70593;DHT22;58294;42.988;20.338;2023-10-19T12:32:09;537.60;1536.00
70593;DHT22;58294;42.988;20.338;2023-10-19T12:34:37;512.90;1536.00
70593;DHT22;58294;42.988;20.338;2023-10-19T12:37:03;512.80;1561.60
70593;DHT22;58294;42.988;20.338;2023-10-19T12:39:29;512.80;1561.60
70593;DHT22;58294;42.988;20.338;2023-10-19T12:42:01;512.80;1561.60
70593;DHT22;58294;42.988;20.338;2023-10-19T12:44:27;512.70;1561.60
70593;DHT22;58294;42.988;20.338;2023-10-19T12:46:55;512.70;1561.60
70593;DHT22;58294;42.988;20.338;2023-10-19T12:49:23;512.70;1561.60
70593;DHT22;58294;42.988;20.338;2023-10-19T12:51:52;512.70;1561.60
70593;DHT22;58294;42.988;20.338;2023-10-19T12:54:18;512.70;1561.60
70593;DHT22;58294;42.988;20.338;2023-10-19T12:56:43;512.70;1536.00
70593;DHT22;58294;42.988;20.338;2023-10-19T12:59:09;512.70;1561.60
70593;DHT22;58294;42.988;20.338;2023-10-19T13:01:35;512.70;1561.60
70593;DHT22;58294;42.988;20.338;2023-10-19T13:04:01;512.60;1561.60
70593;DHT22;58294;42.988;20.338;2023-10-19T13:06:47;512.50;1561.60
70593;DHT22;58294;42.988;20.338;2023-10-19T13:09:14;512.50;1587.20
70593;DHT22;58294;42.988;20.338;2023-10-19T13:11:47;512.40;1587.20
70593;DHT22;58294;42.988;20.338;2023-10-19T13:14:17;512.30;1638.40
70593;DHT22;58294;42.988;20.338;2023-10-19T13:16:43;512.30;1638.40
70593;DHT22;58294;42.988;20.338;2023-10-19T13:19:09;512.30;1664.00
70593;DHT22;58294;42.988;20.338;2023-10-19T13:21:39;512.30;1664.00
70593;DHT22;58294;42.988;20.338;2023-10-19T13:24:08;512.30;1664.00
70593;DHT22;58294;42.988;20.338;2023-10-19T13:26:35;512.30;1664.00
70593;DHT22;58294;42.988;20.338;2023-10-19T13:29:01;512.30;1689.60
70593;DHT22;58294;42.988;20.338;2023-10-19T13:31:27;512.30;1689.60
70593;DHT22;58294;42.988;20.338;2023-10-19T13:33:53;512.30;1689.60
70593;DHT22;58294;42.988;20.338;2023-10-19T13:36:20;512.30;1715.20
70593;DHT22;58294;42.988;20.338;2023-10-19T13:38:46;512.30;1715.20
70593;DHT22;58294;42.988;20.338;2023-10-19T13:41:11;512.30;1740.80
70593;DHT22;58294;42.988;20.338;2023-10-19T13:43:39;512.30;1766.40
70593;DHT22;58294;42.988;20.338;2023-10-19T13:46:05;512.40;1740.80
70593;DHT22;58294;42.988;20.338;2023-10-19T13:48:31;512.30;1715.20
70593;DHT22;58294;42.988;20.338;2023-10-19T13:51:01;512.30;1740.80
70593;DHT22;58294;42.988;20.338;2023-10-19T13:53:38;512.30;1766.40
70593;DHT22;58294;42.988;20.338;2023-10-19T13:56:08;512.30;1766.40
70593;DHT22;58294;42.988;20.338;2023-10-19T13:58:34;512.30;1766.40
70593;DHT22;58294;42.988;20.338;2023-10-19T14:01:00;512.30;1766.40
70593;DHT22;58294;42.988;20.338;2023-10-19T14:03:26;512.30;1766.40
70593;DHT22;58294;42.988;20.338;2023-10-19T14:05:52;512.30;1766.40
70593;DHT22;58294;42.988;20.338;2023-10-19T14:08:21;512.30;1766.40
70593;DHT22;58294;42.988;20.338;2023-10-19T14:10:47;512.30;1766.40
70593;DHT22;58294;42.988;20.338;2023-10-19T14:13:14;512.30;1740.80
70593;DHT22;58294;42.988;20.338;2023-10-19T14:15:40;512.10;1766.40
70593;DHT22;58294;42.988;20.338;2023-10-19T14:18:06;512.00;1766.40
70593;DHT22;58294;42.988;20.338;2023-10-19T14:20:32;512.00;1792.00
70593;DHT22;58294;42.988;20.338;2023-10-19T14:23:01;512.00;1817.60
70593;DHT22;58294;42.988;20.338;2023-10-19T14:25:28;512.00;1792.00
70593;DHT22;58294;42.988;20.338;2023-10-19T14:27:55;487.30;1766.40
70593;DHT22;58294;42.988;20.338;2023-10-19T14:30:32;487.30;1792.00
70593;DHT22;58294;42.988;20.338;2023-10-19T14:32:58;487.20;1792.00
70593;DHT22;58294;42.988;20.338;2023-10-19T14:35:25;487.10;1817.60
70593;DHT22;58294;42.988;20.338;2023-10-19T14:37:52;487.10;1817.60
70593;DHT22;58294;42.988;20.338;2023-10-19T14:40:24;487.10;1843.20
70593;DHT22;58294;42.988;20.338;2023-10-19T14:42:51;487.10;1843.20
70593;DHT22;58294;42.988;20.338;2023-10-19T14:45:22;487.10;1843.20
70593;DHT22;58294;42.988;20.338;2023-10-19T14:47:51;487.10;1868.80
70593;DHT22;58294;42.988;20.338;2023-10-19T14:50:18;487.20;1843.20
70593;DHT22;58294;42.988;20.338;2023-10-19T14:52:50;487.20;1766.40
70593;DHT22;58294;42.988;20.338;2023-10-19T14:55:20;487.20;1740.80